Sunday, December 16, 2018, 5:28 PM GMT
Back to Local

CXDI, Delhi CS, Ont.

Location: , , Canada Lat: 42.867
Local Time: 5:28 PM GMT (17:28 GMT) Lon: -80.55
Time Zone: GMT Elev: 761 ft

Show me the last for .
Show Coded

Time T Td Feel RH Dir Speed Gust Alt SLP Vis Weather Sky Remarks
2018-12-16 17:00 39 34 - 84 40° 2 - - 29.99 0 None
2018-12-16 16:00 35 33 32 94 50° 3 - - 30.03 0 None
2018-12-16 15:00 36 33 - 91 30° 2 - - 30.05 0 None
2018-12-16 14:00 35 33 33 92 30° 3 - - 30.05 0 None
2018-12-16 13:00 35 31 - 86 40° 2 - - 30.03 0 None
2018-12-16 12:00 35 31 - 86 40° 2 - - 30.05 0 None
2018-12-16 11:00 35 32 - 87 50° 2 - - 30.03 0 None
2018-12-16 10:00 33 32 - 95 50° 2 - - 30.04 0 None
2018-12-16 09:00 35 32 - 89 50° 2 - - 30.04 0 None
2018-12-16 08:00 35 32 32 89 70° 3 - - 30.06 0 None
2018-12-16 07:00 35 32 32 87 60° 3 - - 30.08 0 None
2018-12-16 06:00 35 32 32 88 60° 3 - - 30.09 0 None
2018-12-16 05:00 35 32 32 87 50° 3 - - 30.12 0 None
2018-12-16 04:00 36 31 33 84 60° 3 - - 30.16 0 None
2018-12-16 03:00 36 33 33 89 50° 3 - - 30.17 0 None
2018-12-16 02:00 36 33 33 89 50° 3 - - 30.17 0 None
2018-12-16 01:00 35 31 32 85 50° 3 - - 30.18 0 None
2018-12-16 00:00 35 31 32 86 50° 3 - - 30.17 0 None
2018-12-15 23:00 35 31 32 85 50° 3 - - 30.17 0 None
2018-12-15 22:00 35 31 32 85 30° 3 - - 30.16 0 None
2018-12-15 21:00 36 31 - 81 40° 2 - - 30.16 0 None
2018-12-15 20:00 37 33 - 86 40° 2 - - 30.15 0 None
2018-12-15 19:00 37 34 35 86 40° 3 - - 30.13 0 None
2018-12-15 18:00 37 34 - 87 40° 2 - - 30.15 0 None

Support USWX by starting your Amazon purchase here.